sensor_id;sensor_type;location;lat;lon;timestamp;P1;durP1;ratioP1;P2;durP2;ratioP2
71715;SDS011;59568;52.128;5.434;2023-04-03T00:00:35;1.23;;;0.40;;
71715;SDS011;59568;52.128;5.434;2023-04-03T00:03:02;2.45;;;0.65;;
71715;SDS011;59568;52.128;5.434;2023-04-03T00:05:29;1.53;;;0.60;;
71715;SDS011;59568;52.128;5.434;2023-04-03T00:07:56;1.02;;;0.40;;
71715;SDS011;59568;52.128;5.434;2023-04-03T00:10:22;1.88;;;0.75;;
71715;SDS011;59568;52.128;5.434;2023-04-03T00:12:49;10.02;;;0.65;;
71715;SDS011;59568;52.128;5.434;2023-04-03T00:15:17;3.30;;;0.55;;
71715;SDS011;59568;52.128;5.434;2023-04-03T00:17:43;1.67;;;0.40;;
71715;SDS011;59568;52.128;5.434;2023-04-03T00:20:10;1.63;;;0.52;;
71715;SDS011;59568;52.128;5.434;2023-04-03T00:22:36;1.88;;;0.80;;
71715;SDS011;59568;52.128;5.434;2023-04-03T00:25:03;3.47;;;0.68;;
71715;SDS011;59568;52.128;5.434;2023-04-03T00:27:30;2.28;;;0.55;;
71715;SDS011;59568;52.128;5.434;2023-04-03T00:29:57;1.57;;;0.50;;
71715;SDS011;59568;52.128;5.434;2023-04-03T00:32:23;1.60;;;0.52;;
71715;SDS011;59568;52.128;5.434;2023-04-03T00:34:50;2.90;;;0.80;;
71715;SDS011;59568;52.128;5.434;2023-04-03T00:37:16;3.22;;;0.40;;
71715;SDS011;59568;52.128;5.434;2023-04-03T00:39:43;1.45;;;0.55;;
71715;SDS011;59568;52.128;5.434;2023-04-03T00:42:09;4.37;;;1.10;;
71715;SDS011;59568;52.128;5.434;2023-04-03T00:47:03;3.50;;;0.50;;
71715;SDS011;59568;52.128;5.434;2023-04-03T00:49:33;4.68;;;0.60;;
71715;SDS011;59568;52.128;5.434;2023-04-03T00:52:01;1.85;;;0.70;;
71715;SDS011;59568;52.128;5.434;2023-04-03T00:54:28;3.53;;;0.70;;
71715;SDS011;59568;52.128;5.434;2023-04-03T00:56:58;4.18;;;0.60;;
71715;SDS011;59568;52.128;5.434;2023-04-03T00:59:26;4.00;;;0.70;;
71715;SDS011;59568;52.128;5.434;2023-04-03T01:01:57;2.08;;;0.68;;
71715;SDS011;59568;52.128;5.434;2023-04-03T01:07:02;1.97;;;0.60;;
71715;SDS011;59568;52.128;5.434;2023-04-03T01:09:49;3.38;;;0.60;;
71715;SDS011;59568;52.128;5.434;2023-04-03T01:12:32;4.13;;;0.55;;
71715;SDS011;59568;52.128;5.434;2023-04-03T01:15:05;3.53;;;0.93;;
71715;SDS011;59568;52.128;5.434;2023-04-03T01:25:39;1.70;;;0.60;;
71715;SDS011;59568;52.128;5.434;2023-04-03T01:28:10;1.95;;;0.50;;
71715;SDS011;59568;52.128;5.434;2023-04-03T01:33:32;2.13;;;0.53;;
71715;SDS011;59568;52.128;5.434;2023-04-03T01:35:59;3.08;;;0.80;;
71715;SDS011;59568;52.128;5.434;2023-04-03T01:38:26;2.67;;;0.88;;
71715;SDS011;59568;52.128;5.434;2023-04-03T01:40:53;3.38;;;0.60;;
71715;SDS011;59568;52.128;5.434;2023-04-03T01:43:20;2.10;;;0.73;;
71715;SDS011;59568;52.128;5.434;2023-04-03T01:45:47;2.70;;;0.50;;
71715;SDS011;59568;52.128;5.434;2023-04-03T01:48:18;2.05;;;0.52;;
71715;SDS011;59568;52.128;5.434;2023-04-03T01:50:44;1.25;;;0.43;;
71715;SDS011;59568;52.128;5.434;2023-04-03T01:53:11;1.73;;;0.70;;
71715;SDS011;59568;52.128;5.434;2023-04-03T01:55:38;2.20;;;0.68;;
71715;SDS011;59568;52.128;5.434;2023-04-03T01:58:04;5.23;;;0.80;;
71715;SDS011;59568;52.128;5.434;2023-04-03T02:00:33;1.73;;;0.60;;
71715;SDS011;59568;52.128;5.434;2023-04-03T02:03:00;1.23;;;0.40;;
71715;SDS011;59568;52.128;5.434;2023-04-03T02:05:27;2.17;;;0.65;;
71715;SDS011;59568;52.128;5.434;2023-04-03T02:07:53;2.10;;;0.85;;
71715;SDS011;59568;52.128;5.434;2023-04-03T02:10:20;3.40;;;0.77;;
71715;SDS011;59568;52.128;5.434;2023-04-03T02:12:47;2.72;;;0.50;;
71715;SDS011;59568;52.128;5.434;2023-04-03T02:15:13;1.10;;;0.60;;
71715;SDS011;59568;52.128;5.434;2023-04-03T02:17:40;2.40;;;0.70;;
71715;SDS011;59568;52.128;5.434;2023-04-03T02:20:07;2.50;;;0.77;;
71715;SDS011;59568;52.128;5.434;2023-04-03T02:22:34;2.63;;;0.60;;
71715;SDS011;59568;52.128;5.434;2023-04-03T02:25:00;2.75;;;0.80;;
71715;SDS011;59568;52.128;5.434;2023-04-03T02:27:27;1.38;;;0.45;;
71715;SDS011;59568;52.128;5.434;2023-04-03T02:29:54;2.05;;;0.47;;
71715;SDS011;59568;52.128;5.434;2023-04-03T02:32:20;2.78;;;0.77;;
71715;SDS011;59568;52.128;5.434;2023-04-03T02:34:48;1.97;;;0.60;;
71715;SDS011;59568;52.128;5.434;2023-04-03T02:37:15;1.80;;;0.90;;
71715;SDS011;59568;52.128;5.434;2023-04-03T02:39:42;1.95;;;0.60;;
71715;SDS011;59568;52.128;5.434;2023-04-03T02:42:08;2.92;;;0.70;;
71715;SDS011;59568;52.128;5.434;2023-04-03T02:44:35;3.30;;;1.00;;
71715;SDS011;59568;52.128;5.434;2023-04-03T02:47:02;8.83;;;1.10;;
71715;SDS011;59568;52.128;5.434;2023-04-03T02:49:29;2.55;;;0.73;;
71715;SDS011;59568;52.128;5.434;2023-04-03T02:51:55;3.08;;;1.13;;
71715;SDS011;59568;52.128;5.434;2023-04-03T02:54:22;3.13;;;0.95;;
71715;SDS011;59568;52.128;5.434;2023-04-03T02:56:49;2.80;;;0.90;;
71715;SDS011;59568;52.128;5.434;2023-04-03T02:59:16;2.90;;;0.80;;
71715;SDS011;59568;52.128;5.434;2023-04-03T03:01:43;1.38;;;0.60;;
71715;SDS011;59568;52.128;5.434;2023-04-03T03:04:10;1.88;;;0.73;;
71715;SDS011;59568;52.128;5.434;2023-04-03T03:06:36;2.15;;;0.60;;
71715;SDS011;59568;52.128;5.434;2023-04-03T03:09:03;3.72;;;1.20;;
71715;SDS011;59568;52.128;5.434;2023-04-03T03:11:29;4.50;;;0.87;;
71715;SDS011;59568;52.128;5.434;2023-04-03T03:13:56;2.83;;;0.70;;
71715;SDS011;59568;52.128;5.434;2023-04-03T03:16:23;4.13;;;0.70;;
71715;SDS011;59568;52.128;5.434;2023-04-03T03:18:50;4.03;;;0.80;;
71715;SDS011;59568;52.128;5.434;2023-04-03T03:21:17;3.65;;;0.68;;
71715;SDS011;59568;52.128;5.434;2023-04-03T03:23:44;2.43;;;0.67;;
71715;SDS011;59568;52.128;5.434;2023-04-03T03:26:10;2.58;;;1.10;;
71715;SDS011;59568;52.128;5.434;2023-04-03T03:28:38;5.05;;;1.10;;
71715;SDS011;59568;52.128;5.434;2023-04-03T03:31:06;2.08;;;0.73;;
71715;SDS011;59568;52.128;5.434;2023-04-03T03:33:33;1.90;;;0.80;;
71715;SDS011;59568;52.128;5.434;2023-04-03T03:36:00;2.97;;;0.87;;
71715;SDS011;59568;52.128;5.434;2023-04-03T03:38:26;6.70;;;0.95;;
71715;SDS011;59568;52.128;5.434;2023-04-03T03:40:53;3.95;;;0.70;;
71715;SDS011;59568;52.128;5.434;2023-04-03T03:43:20;1.67;;;0.85;;
71715;SDS011;59568;52.128;5.434;2023-04-03T03:45:49;5.82;;;1.00;;
71715;SDS011;59568;52.128;5.434;2023-04-03T03:48:18;2.50;;;0.90;;
71715;SDS011;59568;52.128;5.434;2023-04-03T03:50:45;3.63;;;0.90;;
71715;SDS011;59568;52.128;5.434;2023-04-03T03:53:12;2.13;;;0.80;;
71715;SDS011;59568;52.128;5.434;2023-04-03T03:55:38;3.30;;;0.85;;
71715;SDS011;59568;52.128;5.434;2023-04-03T03:58:05;4.13;;;0.85;;
71715;SDS011;59568;52.128;5.434;2023-04-03T04:00:32;2.70;;;1.03;;
71715;SDS011;59568;52.128;5.434;2023-04-03T04:02:58;3.05;;;1.00;;
71715;SDS011;59568;52.128;5.434;2023-04-03T04:05:25;4.88;;;0.77;;
71715;SDS011;59568;52.128;5.434;2023-04-03T04:07:52;2.78;;;0.80;;
71715;SDS011;59568;52.128;5.434;2023-04-03T04:10:18;3.55;;;1.33;;
71715;SDS011;59568;52.128;5.434;2023-04-03T04:12:45;7.07;;;0.60;;
71715;SDS011;59568;52.128;5.434;2023-04-03T04:15:12;4.78;;;1.23;;
71715;SDS011;59568;52.128;5.434;2023-04-03T04:17:38;2.35;;;0.68;;
71715;SDS011;59568;52.128;5.434;2023-04-03T04:20:05;5.05;;;1.30;;
71715;SDS011;59568;52.128;5.434;2023-04-03T04:22:32;1.38;;;0.63;;
71715;SDS011;59568;52.128;5.434;2023-04-03T04:24:59;2.80;;;1.23;;
71715;SDS011;59568;52.128;5.434;2023-04-03T04:27:25;2.60;;;1.27;;
71715;SDS011;59568;52.128;5.434;2023-04-03T04:29:52;1.33;;;0.70;;
71715;SDS011;59568;52.128;5.434;2023-04-03T04:32:18;3.90;;;0.90;;
71715;SDS011;59568;52.128;5.434;2023-04-03T04:34:45;2.78;;;0.98;;
71715;SDS011;59568;52.128;5.434;2023-04-03T04:37:11;2.57;;;0.80;;
71715;SDS011;59568;52.128;5.434;2023-04-03T04:39:38;2.33;;;0.93;;
71715;SDS011;59568;52.128;5.434;2023-04-03T04:42:04;4.78;;;1.17;;
71715;SDS011;59568;52.128;5.434;2023-04-03T04:44:33;4.88;;;0.98;;
71715;SDS011;59568;52.128;5.434;2023-04-03T04:46:59;1.30;;;0.60;;
71715;SDS011;59568;52.128;5.434;2023-04-03T04:49:26;5.00;;;0.80;;
71715;SDS011;59568;52.128;5.434;2023-04-03T04:51:53;1.98;;;1.00;;
71715;SDS011;59568;52.128;5.434;2023-04-03T04:54:20;2.95;;;0.95;;
71715;SDS011;59568;52.128;5.434;2023-04-03T04:56:46;2.67;;;0.90;;
71715;SDS011;59568;52.128;5.434;2023-04-03T04:59:12;2.78;;;0.80;;
71715;SDS011;59568;52.128;5.434;2023-04-03T05:01:39;6.13;;;1.47;;
71715;SDS011;59568;52.128;5.434;2023-04-03T05:04:06;2.08;;;0.90;;
71715;SDS011;59568;52.128;5.434;2023-04-03T05:06:32;2.05;;;0.98;;
71715;SDS011;59568;52.128;5.434;2023-04-03T05:09:01;2.38;;;1.02;;
71715;SDS011;59568;52.128;5.434;2023-04-03T05:11:28;3.70;;;0.88;;
71715;SDS011;59568;52.128;5.434;2023-04-03T05:13:54;3.13;;;0.90;;
71715;SDS011;59568;52.128;5.434;2023-04-03T05:16:21;5.03;;;1.15;;
71715;SDS011;59568;52.128;5.434;2023-04-03T05:18:48;4.28;;;1.35;;
71715;SDS011;59568;52.128;5.434;2023-04-03T05:21:14;6.65;;;1.40;;
71715;SDS011;59568;52.128;5.434;2023-04-03T05:23:41;7.20;;;1.90;;
71715;SDS011;59568;52.128;5.434;2023-04-03T05:26:07;3.93;;;1.40;;
71715;SDS011;59568;52.128;5.434;2023-04-03T05:28:34;3.22;;;1.30;;
71715;SDS011;59568;52.128;5.434;2023-04-03T05:31:01;4.03;;;1.20;;
71715;SDS011;59568;52.128;5.434;2023-04-03T05:33:28;2.45;;;1.08;;
71715;SDS011;59568;52.128;5.434;2023-04-03T05:35:55;6.18;;;1.20;;
71715;SDS011;59568;52.128;5.434;2023-04-03T05:38:22;3.87;;;1.33;;
71715;SDS011;59568;52.128;5.434;2023-04-03T05:40:48;6.05;;;1.55;;
71715;SDS011;59568;52.128;5.434;2023-04-03T05:43:18;4.00;;;1.00;;
71715;SDS011;59568;52.128;5.434;2023-04-03T05:45:45;3.92;;;1.08;;
71715;SDS011;59568;52.128;5.434;2023-04-03T05:48:13;2.90;;;1.30;;
71715;SDS011;59568;52.128;5.434;2023-04-03T05:50:40;4.63;;;1.20;;
71715;SDS011;59568;52.128;5.434;2023-04-03T05:53:19;6.78;;;1.55;;
71715;SDS011;59568;52.128;5.434;2023-04-03T05:55:51;4.03;;;1.02;;
71715;SDS011;59568;52.128;5.434;2023-04-03T05:58:17;3.03;;;0.73;;
71715;SDS011;59568;52.128;5.434;2023-04-03T06:00:44;6.78;;;1.08;;
71715;SDS011;59568;52.128;5.434;2023-04-03T06:03:11;2.20;;;0.87;;
71715;SDS011;59568;52.128;5.434;2023-04-03T06:05:38;3.45;;;0.80;;
71715;SDS011;59568;52.128;5.434;2023-04-03T06:08:13;2.40;;;0.90;;
71715;SDS011;59568;52.128;5.434;2023-04-03T06:10:40;2.95;;;0.93;;
71715;SDS011;59568;52.128;5.434;2023-04-03T06:13:07;4.65;;;1.00;;
71715;SDS011;59568;52.128;5.434;2023-04-03T06:15:34;4.33;;;1.10;;
71715;SDS011;59568;52.128;5.434;2023-04-03T06:18:00;4.95;;;1.13;;
71715;SDS011;59568;52.128;5.434;2023-04-03T06:20:27;3.28;;;0.98;;
71715;SDS011;59568;52.128;5.434;2023-04-03T06:22:54;1.65;;;0.85;;
71715;SDS011;59568;52.128;5.434;2023-04-03T06:25:20;3.78;;;1.08;;
71715;SDS011;59568;52.128;5.434;2023-04-03T06:27:47;2.67;;;1.10;;
71715;SDS011;59568;52.128;5.434;2023-04-03T06:30:13;3.75;;;0.82;;
71715;SDS011;59568;52.128;5.434;2023-04-03T06:32:40;5.28;;;1.05;;
71715;SDS011;59568;52.128;5.434;2023-04-03T06:35:07;2.72;;;0.90;;
71715;SDS011;59568;52.128;5.434;2023-04-03T06:37:34;2.75;;;0.85;;
71715;SDS011;59568;52.128;5.434;2023-04-03T06:40:01;4.43;;;0.83;;
71715;SDS011;59568;52.128;5.434;2023-04-03T06:42:29;3.00;;;0.70;;
71715;SDS011;59568;52.128;5.434;2023-04-03T06:44:55;4.97;;;1.13;;
71715;SDS011;59568;52.128;5.434;2023-04-03T06:47:23;3.90;;;1.00;;
71715;SDS011;59568;52.128;5.434;2023-04-03T06:49:49;5.18;;;0.82;;
71715;SDS011;59568;52.128;5.434;2023-04-03T06:52:20;3.23;;;1.40;;
71715;SDS011;59568;52.128;5.434;2023-04-03T06:54:46;2.03;;;0.80;;
71715;SDS011;59568;52.128;5.434;2023-04-03T06:57:13;5.72;;;1.20;;
71715;SDS011;59568;52.128;5.434;2023-04-03T06:59:42;2.15;;;0.95;;
71715;SDS011;59568;52.128;5.434;2023-04-03T07:02:09;2.15;;;0.98;;
71715;SDS011;59568;52.128;5.434;2023-04-03T07:04:37;3.50;;;1.00;;
71715;SDS011;59568;52.128;5.434;2023-04-03T07:07:04;4.35;;;0.98;;
71715;SDS011;59568;52.128;5.434;2023-04-03T07:09:34;5.15;;;1.05;;
71715;SDS011;59568;52.128;5.434;2023-04-03T07:12:02;4.20;;;0.93;;
71715;SDS011;59568;52.128;5.434;2023-04-03T07:14:29;4.75;;;0.95;;
71715;SDS011;59568;52.128;5.434;2023-04-03T07:16:56;3.93;;;1.13;;
71715;SDS011;59568;52.128;5.434;2023-04-03T07:19:22;3.05;;;1.10;;
71715;SDS011;59568;52.128;5.434;2023-04-03T07:21:50;5.43;;;1.00;;
71715;SDS011;59568;52.128;5.434;2023-04-03T07:24:17;3.65;;;0.68;;
71715;SDS011;59568;52.128;5.434;2023-04-03T07:26:51;2.30;;;0.70;;
71715;SDS011;59568;52.128;5.434;2023-04-03T07:29:19;2.60;;;0.53;;
71715;SDS011;59568;52.128;5.434;2023-04-03T07:31:49;2.47;;;0.90;;
71715;SDS011;59568;52.128;5.434;2023-04-03T07:34:19;4.00;;;0.77;;
71715;SDS011;59568;52.128;5.434;2023-04-03T07:36:47;5.88;;;1.23;;
71715;SDS011;59568;52.128;5.434;2023-04-03T07:39:16;4.63;;;0.90;;
71715;SDS011;59568;52.128;5.434;2023-04-03T07:41:42;3.80;;;0.80;;
71715;SDS011;59568;52.128;5.434;2023-04-03T07:44:09;4.97;;;1.02;;
71715;SDS011;59568;52.128;5.434;2023-04-03T07:46:38;6.32;;;1.00;;
71715;SDS011;59568;52.128;5.434;2023-04-03T07:49:08;2.67;;;0.60;;
71715;SDS011;59568;52.128;5.434;2023-04-03T07:51:35;3.65;;;0.95;;
71715;SDS011;59568;52.128;5.434;2023-04-03T07:54:01;1.70;;;0.50;;
71715;SDS011;59568;52.128;5.434;2023-04-03T07:56:28;2.78;;;0.95;;
71715;SDS011;59568;52.128;5.434;2023-04-03T07:58:55;2.10;;;0.95;;
71715;SDS011;59568;52.128;5.434;2023-04-03T08:01:22;2.88;;;0.90;;
71715;SDS011;59568;52.128;5.434;2023-04-03T08:03:49;2.85;;;0.88;;
71715;SDS011;59568;52.128;5.434;2023-04-03T08:06:37;2.03;;;0.60;;
71715;SDS011;59568;52.128;5.434;2023-04-03T08:09:23;6.07;;;1.00;;
71715;SDS011;59568;52.128;5.434;2023-04-03T08:11:50;3.22;;;0.70;;
71715;SDS011;59568;52.128;5.434;2023-04-03T08:14:23;2.92;;;0.57;;
71715;SDS011;59568;52.128;5.434;2023-04-03T08:16:50;4.57;;;1.05;;
71715;SDS011;59568;52.128;5.434;2023-04-03T08:19:17;1.87;;;0.57;;
71715;SDS011;59568;52.128;5.434;2023-04-03T08:21:52;2.90;;;0.60;;
71715;SDS011;59568;52.128;5.434;2023-04-03T08:24:20;3.40;;;0.80;;
71715;SDS011;59568;52.128;5.434;2023-04-03T08:26:47;3.58;;;0.55;;
71715;SDS011;59568;52.128;5.434;2023-04-03T08:29:14;3.15;;;0.60;;
71715;SDS011;59568;52.128;5.434;2023-04-03T08:31:40;3.87;;;0.80;;
71715;SDS011;59568;52.128;5.434;2023-04-03T08:34:08;3.20;;;0.80;;
71715;SDS011;59568;52.128;5.434;2023-04-03T08:36:34;2.00;;;0.52;;
71715;SDS011;59568;52.128;5.434;2023-04-03T08:39:01;2.13;;;0.50;;
71715;SDS011;59568;52.128;5.434;2023-04-03T08:46:56;1.17;;;0.47;;
71715;SDS011;59568;52.128;5.434;2023-04-03T08:49:52;2.10;;;0.50;;
71715;SDS011;59568;52.128;5.434;2023-04-03T08:52:39;1.95;;;0.30;;
71715;SDS011;59568;52.128;5.434;2023-04-03T08:58:01;1.20;;;0.37;;
71715;SDS011;59568;52.128;5.434;2023-04-03T09:00:32;5.18;;;0.30;;
71715;SDS011;59568;52.128;5.434;2023-04-03T09:03:28;0.70;;;0.30;;
71715;SDS011;59568;52.128;5.434;2023-04-03T09:06:04;1.33;;;0.45;;
71715;SDS011;59568;52.128;5.434;2023-04-03T09:08:36;0.98;;;0.30;;
71715;SDS011;59568;52.128;5.434;2023-04-03T09:11:23;1.43;;;0.40;;
71715;SDS011;59568;52.128;5.434;2023-04-03T09:14:12;3.63;;;0.38;;
71715;SDS011;59568;52.128;5.434;2023-04-03T09:16:48;1.08;;;0.32;;
71715;SDS011;59568;52.128;5.434;2023-04-03T09:22:02;2.88;;;0.30;;
71715;SDS011;59568;52.128;5.434;2023-04-03T09:25:21;1.87;;;0.20;;
71715;SDS011;59568;52.128;5.434;2023-04-03T09:27:53;0.60;;;0.20;;
71715;SDS011;59568;52.128;5.434;2023-04-03T09:30:24;0.90;;;0.30;;
71715;SDS011;59568;52.128;5.434;2023-04-03T09:33:09;0.93;;;0.30;;
71715;SDS011;59568;52.128;5.434;2023-04-03T09:35:38;0.85;;;0.20;;
71715;SDS011;59568;52.128;5.434;2023-04-03T09:38:15;1.10;;;0.20;;
71715;SDS011;59568;52.128;5.434;2023-04-03T09:40:50;1.90;;;0.30;;
71715;SDS011;59568;52.128;5.434;2023-04-03T09:43:53;0.88;;;0.25;;
71715;SDS011;59568;52.128;5.434;2023-04-03T09:49:02;1.52;;;0.28;;
71715;SDS011;59568;52.128;5.434;2023-04-03T09:51:34;2.50;;;0.40;;
71715;SDS011;59568;52.128;5.434;2023-04-03T09:54:17;0.55;;;0.20;;
71715;SDS011;59568;52.128;5.434;2023-04-03T09:57:00;1.48;;;0.20;;
71715;SDS011;59568;52.128;5.434;2023-04-03T09:59:36;0.30;;;0.20;;
71715;SDS011;59568;52.128;5.434;2023-04-03T10:02:38;0.45;;;0.20;;
71715;SDS011;59568;52.128;5.434;2023-04-03T10:08:08;0.85;;;0.20;;
71715;SDS011;59568;52.128;5.434;2023-04-03T10:11:22;0.65;;;0.20;;
71715;SDS011;59568;52.128;5.434;2023-04-03T10:13:53;0.60;;;0.20;;
71715;SDS011;59568;52.128;5.434;2023-04-03T10:16:32;0.60;;;0.30;;
71715;SDS011;59568;52.128;5.434;2023-04-03T10:27:24;1.48;;;0.35;;
71715;SDS011;59568;52.128;5.434;2023-04-03T10:38:21;0.60;;;0.20;;
71715;SDS011;59568;52.128;5.434;2023-04-03T10:41:11;0.73;;;0.28;;
71715;SDS011;59568;52.128;5.434;2023-04-03T10:43:44;1.55;;;0.30;;
71715;SDS011;59568;52.128;5.434;2023-04-03T10:46:19;2.03;;;0.20;;
71715;SDS011;59568;52.128;5.434;2023-04-03T10:49:16;4.15;;;0.30;;
71715;SDS011;59568;52.128;5.434;2023-04-03T10:54:41;1.95;;;0.20;;
71715;SDS011;59568;52.128;5.434;2023-04-03T10:57:14;0.40;;;0.20;;
71715;SDS011;59568;52.128;5.434;2023-04-03T11:02:18;0.73;;;0.22;;
71715;SDS011;59568;52.128;5.434;2023-04-03T11:04:55;1.30;;;0.20;;
71715;SDS011;59568;52.128;5.434;2023-04-03T11:07:38;1.33;;;0.30;;
71715;SDS011;59568;52.128;5.434;2023-04-03T11:10:11;1.80;;;0.20;;
71715;SDS011;59568;52.128;5.434;2023-04-03T11:12:44;2.43;;;0.40;;
71715;SDS011;59568;52.128;5.434;2023-04-03T11:15:16;1.88;;;0.28;;
71715;SDS011;59568;52.128;5.434;2023-04-03T11:20:37;1.38;;;0.52;;
71715;SDS011;59568;52.128;5.434;2023-04-03T11:23:26;1.80;;;0.35;;
71715;SDS011;59568;52.128;5.434;2023-04-03T11:26:12;1.13;;;0.30;;
71715;SDS011;59568;52.128;5.434;2023-04-03T11:28:41;0.68;;;0.20;;
71715;SDS011;59568;52.128;5.434;2023-04-03T11:31:27;0.40;;;0.20;;
71715;SDS011;59568;52.128;5.434;2023-04-03T11:36:38;1.90;;;0.40;;
71715;SDS011;59568;52.128;5.434;2023-04-03T11:39:16;2.13;;;0.20;;
71715;SDS011;59568;52.128;5.434;2023-04-03T11:44:39;1.13;;;0.20;;
71715;SDS011;59568;52.128;5.434;2023-04-03T11:47:06;0.88;;;0.30;;
71715;SDS011;59568;52.128;5.434;2023-04-03T11:49:56;1.33;;;0.30;;
71715;SDS011;59568;52.128;5.434;2023-04-03T12:16:19;1.10;;;0.30;;
71715;SDS011;59568;52.128;5.434;2023-04-03T12:21:16;0.50;;;0.30;;
71715;SDS011;59568;52.128;5.434;2023-04-03T12:29:25;1.40;;;0.30;;
71715;SDS011;59568;52.128;5.434;2023-04-03T12:32:13;2.10;;;0.40;;
71715;SDS011;59568;52.128;5.434;2023-04-03T12:43:25;4.53;;;0.47;;
71715;SDS011;59568;52.128;5.434;2023-04-03T12:48:29;3.08;;;0.20;;
71715;SDS011;59568;52.128;5.434;2023-04-03T12:50:58;1.25;;;0.20;;
71715;SDS011;59568;52.128;5.434;2023-04-03T12:53:26;2.08;;;0.38;;
71715;SDS011;59568;52.128;5.434;2023-04-03T12:58:50;1.27;;;0.30;;
71715;SDS011;59568;52.128;5.434;2023-04-03T13:01:22;1.10;;;0.40;;
71715;SDS011;59568;52.128;5.434;2023-04-03T13:03:52;2.35;;;0.60;;
71715;SDS011;59568;52.128;5.434;2023-04-03T13:06:26;1.00;;;0.20;;
71715;SDS011;59568;52.128;5.434;2023-04-03T13:08:59;2.05;;;0.22;;
71715;SDS011;59568;52.128;5.434;2023-04-03T13:11:30;1.47;;;0.40;;
71715;SDS011;59568;52.128;5.434;2023-04-03T13:14:14;2.67;;;0.40;;
71715;SDS011;59568;52.128;5.434;2023-04-03T13:16:54;1.13;;;0.30;;
71715;SDS011;59568;52.128;5.434;2023-04-03T13:19:22;1.92;;;0.35;;
71715;SDS011;59568;52.128;5.434;2023-04-03T13:22:02;2.28;;;0.40;;
71715;SDS011;59568;52.128;5.434;2023-04-03T13:24:33;1.10;;;0.30;;
71715;SDS011;59568;52.128;5.434;2023-04-03T13:27:02;3.10;;;0.40;;
71715;SDS011;59568;52.128;5.434;2023-04-03T13:29:34;2.80;;;0.47;;
71715;SDS011;59568;52.128;5.434;2023-04-03T13:32:03;1.80;;;0.50;;
71715;SDS011;59568;52.128;5.434;2023-04-03T13:34:37;0.80;;;0.40;;
71715;SDS011;59568;52.128;5.434;2023-04-03T13:37:11;1.00;;;0.47;;
71715;SDS011;59568;52.128;5.434;2023-04-03T13:40:11;0.68;;;0.38;;
71715;SDS011;59568;52.128;5.434;2023-04-03T13:42:39;3.22;;;0.32;;
71715;SDS011;59568;52.128;5.434;2023-04-03T13:47:41;2.03;;;0.30;;
71715;SDS011;59568;52.128;5.434;2023-04-03T13:50:18;2.30;;;0.30;;
71715;SDS011;59568;52.128;5.434;2023-04-03T13:53:01;0.80;;;0.40;;
71715;SDS011;59568;52.128;5.434;2023-04-03T13:55:35;1.75;;;0.47;;
71715;SDS011;59568;52.128;5.434;2023-04-03T14:01:18;2.20;;;0.30;;
71715;SDS011;59568;52.128;5.434;2023-04-03T14:03:56;1.20;;;0.40;;
71715;SDS011;59568;52.128;5.434;2023-04-03T14:06:54;1.05;;;0.30;;
71715;SDS011;59568;52.128;5.434;2023-04-03T14:09:23;0.80;;;0.30;;
71715;SDS011;59568;52.128;5.434;2023-04-03T14:11:54;0.80;;;0.20;;
71715;SDS011;59568;52.128;5.434;2023-04-03T14:14:38;1.83;;;0.60;;
71715;SDS011;59568;52.128;5.434;2023-04-03T14:17:10;1.60;;;0.30;;
71715;SDS011;59568;52.128;5.434;2023-04-03T14:19:52;1.45;;;0.45;;
71715;SDS011;59568;52.128;5.434;2023-04-03T14:22:24;1.33;;;0.47;;
71715;SDS011;59568;52.128;5.434;2023-04-03T14:24:57;3.10;;;0.40;;
71715;SDS011;59568;52.128;5.434;2023-04-03T14:27:26;3.38;;;0.30;;
71715;SDS011;59568;52.128;5.434;2023-04-03T14:30:01;2.00;;;0.83;;
71715;SDS011;59568;52.128;5.434;2023-04-03T14:32:29;1.70;;;0.40;;
71715;SDS011;59568;52.128;5.434;2023-04-03T14:34:56;1.63;;;0.30;;
71715;SDS011;59568;52.128;5.434;2023-04-03T14:37:25;2.40;;;0.50;;
71715;SDS011;59568;52.128;5.434;2023-04-03T14:39:54;1.70;;;0.47;;
71715;SDS011;59568;52.128;5.434;2023-04-03T14:42:23;1.00;;;0.50;;
71715;SDS011;59568;52.128;5.434;2023-04-03T14:44:53;2.75;;;0.50;;
71715;SDS011;59568;52.128;5.434;2023-04-03T14:47:22;1.77;;;0.63;;
71715;SDS011;59568;52.128;5.434;2023-04-03T14:49:57;1.05;;;0.30;;
71715;SDS011;59568;52.128;5.434;2023-04-03T14:52:27;1.63;;;0.38;;
71715;SDS011;59568;52.128;5.434;2023-04-03T14:54:58;1.40;;;0.67;;
71715;SDS011;59568;52.128;5.434;2023-04-03T14:57:25;1.77;;;0.50;;
71715;SDS011;59568;52.128;5.434;2023-04-03T14:59:54;2.35;;;0.85;;
71715;SDS011;59568;52.128;5.434;2023-04-03T15:04:52;4.63;;;0.40;;
71715;SDS011;59568;52.128;5.434;2023-04-03T15:07:19;2.77;;;0.60;;
71715;SDS011;59568;52.128;5.434;2023-04-03T15:09:46;1.63;;;0.40;;
71715;SDS011;59568;52.128;5.434;2023-04-03T15:12:13;2.15;;;0.40;;
71715;SDS011;59568;52.128;5.434;2023-04-03T15:14:40;1.60;;;0.50;;
71715;SDS011;59568;52.128;5.434;2023-04-03T15:17:19;1.70;;;0.50;;
71715;SDS011;59568;52.128;5.434;2023-04-03T15:19:49;2.67;;;0.40;;
71715;SDS011;59568;52.128;5.434;2023-04-03T15:22:16;1.00;;;0.40;;
71715;SDS011;59568;52.128;5.434;2023-04-03T15:24:44;2.15;;;0.40;;
71715;SDS011;59568;52.128;5.434;2023-04-03T15:27:11;2.15;;;0.47;;
71715;SDS011;59568;52.128;5.434;2023-04-03T15:29:39;2.70;;;0.60;;
71715;SDS011;59568;52.128;5.434;2023-04-03T15:32:08;3.70;;;0.50;;
71715;SDS011;59568;52.128;5.434;2023-04-03T15:34:35;1.88;;;0.50;;
71715;SDS011;59568;52.128;5.434;2023-04-03T15:37:04;3.67;;;0.52;;
71715;SDS011;59568;52.128;5.434;2023-04-03T15:39:31;2.35;;;0.32;;
71715;SDS011;59568;52.128;5.434;2023-04-03T15:41:58;2.60;;;0.65;;
71715;SDS011;59568;52.128;5.434;2023-04-03T15:44:35;1.83;;;0.50;;
71715;SDS011;59568;52.128;5.434;2023-04-03T15:47:02;2.00;;;0.68;;
71715;SDS011;59568;52.128;5.434;2023-04-03T15:49:29;1.50;;;0.50;;
71715;SDS011;59568;52.128;5.434;2023-04-03T15:51:59;2.10;;;0.50;;
71715;SDS011;59568;52.128;5.434;2023-04-03T15:54:25;1.55;;;0.50;;
71715;SDS011;59568;52.128;5.434;2023-04-03T15:56:53;1.90;;;0.60;;
71715;SDS011;59568;52.128;5.434;2023-04-03T15:59:21;1.33;;;0.43;;
71715;SDS011;59568;52.128;5.434;2023-04-03T16:01:48;2.28;;;0.40;;
71715;SDS011;59568;52.128;5.434;2023-04-03T16:04:16;1.98;;;0.50;;
71715;SDS011;59568;52.128;5.434;2023-04-03T16:06:45;3.65;;;0.60;;
71715;SDS011;59568;52.128;5.434;2023-04-03T16:09:11;1.30;;;0.50;;
71715;SDS011;59568;52.128;5.434;2023-04-03T16:11:38;1.92;;;0.50;;
71715;SDS011;59568;52.128;5.434;2023-04-03T16:14:08;3.10;;;0.52;;
71715;SDS011;59568;52.128;5.434;2023-04-03T16:16:35;1.48;;;0.30;;
71715;SDS011;59568;52.128;5.434;2023-04-03T16:19:02;1.92;;;0.40;;
71715;SDS011;59568;52.128;5.434;2023-04-03T16:21:29;2.87;;;0.50;;
71715;SDS011;59568;52.128;5.434;2023-04-03T16:23:56;3.30;;;0.50;;
71715;SDS011;59568;52.128;5.434;2023-04-03T16:26:27;4.32;;;0.57;;
71715;SDS011;59568;52.128;5.434;2023-04-03T16:28:53;2.78;;;0.60;;
71715;SDS011;59568;52.128;5.434;2023-04-03T16:31:22;2.28;;;0.65;;
71715;SDS011;59568;52.128;5.434;2023-04-03T16:34:29;1.37;;;0.50;;
71715;SDS011;59568;52.128;5.434;2023-04-03T16:36:59;2.72;;;0.80;;
71715;SDS011;59568;52.128;5.434;2023-04-03T16:39:25;1.90;;;0.57;;
71715;SDS011;59568;52.128;5.434;2023-04-03T16:41:52;3.85;;;0.60;;
71715;SDS011;59568;52.128;5.434;2023-04-03T16:44:19;2.55;;;0.45;;
71715;SDS011;59568;52.128;5.434;2023-04-03T16:46:46;2.40;;;0.40;;
71715;SDS011;59568;52.128;5.434;2023-04-03T16:49:13;2.50;;;0.60;;
71715;SDS011;59568;52.128;5.434;2023-04-03T16:51:40;1.77;;;0.50;;
71715;SDS011;59568;52.128;5.434;2023-04-03T16:54:07;2.70;;;0.40;;
71715;SDS011;59568;52.128;5.434;2023-04-03T16:56:36;2.85;;;0.60;;
71715;SDS011;59568;52.128;5.434;2023-04-03T16:59:03;3.03;;;0.97;;
71715;SDS011;59568;52.128;5.434;2023-04-03T17:01:29;1.50;;;0.43;;
71715;SDS011;59568;52.128;5.434;2023-04-03T17:03:56;1.30;;;0.40;;